Davis Monthan Air Force Base
KDMA : rendu visible

Aérodrome :











RETROUVEZ-NOUS SUR...

 
LOGIN :

S'inscrire | Disclaimer

   EN    FR    IT 

 









Légende :    VFR   VFR Marginal   IFR   IFR Intensif   IFR Très Intensif
Visi : 
Plafond : 
>= 8 km
>= 3000ft
5 à 8 km
1000 à 3000 ft
1500m à 5 km
500 à 1000 ft
800 à 1500m
200 à 500 ft
< 800m
< 200 ft
Symboles :   Orages  Brouillard  Fortes neiges  Fortes précipitations  Vent > 20 kt






- Altitude de l'aérodrome : 2704 ft


KDMA - Davis Monthan Air Force Base

DERNIER METAR :
  • 260758Z AUTO 11004KT 10SM CLR 09/06 A3013 RMK AO2 SLP183 T00860057 FZRANO $

METARs EXPIRÉS :
  • 260658Z AUTO 09003KT 10SM CLR 09/06 A3013 RMK AO2 SLP183 T00910062 402150064 FZRANO $
  • 260558Z AUTO 11008KT 10SM CLR 10/07 A3013 RMK AO2 SLP185 T00990066 10198 20099 52013 FZRANO $

TAF TAF KDMA
Valide du 26 à 06h jusqu'au 27 à 12h UTC


260603Z 2606/2712 12006KT 9999 FEW280 QNH3013INS
BECMG 2618/2619 28009KT 9999 FEW250 QNH3007INS
BECMG 2703/2704 12006KT 9999 SCT220 QNH3008INS
BECMG 2706/2707 12009KT 9999 SCT120 BKN200 QNH3006INS TX21/2621Z TN08/2613Z



MET'MAP, la Météo Aéronautique d'un coup d'oeil ! - Copyright ORBIFLY Décembre 2007 - Disclaimer

ORBIFLY MET'MAP TEAM :

Programmation & Développement : Alexandra Zaïnal
Sur une idée originale de : Baudouin d'Aumeries
Assistance à la programmation : Marc-Olivier Méhu
Soutien technique & logistique : Manuel Goepfert

Contact : metmap@orbifly.com




SOURCES & CREDITS :

   NOAA       Earth
Advisory